createdAt,value
2018-02-23T07:25:54.524Z,1018.34
2018-02-23T07:26:54.057Z,1018.31
2018-02-23T07:28:58.159Z,1018.33
2018-02-23T07:29:58.426Z,1018.34
2018-02-23T07:30:58.294Z,1018.38
2018-02-23T07:31:58.230Z,1018.36
2018-02-23T07:32:58.254Z,1018.38
2018-02-23T07:33:58.454Z,1018.39
2018-02-23T07:34:58.946Z,1018.37
2018-02-23T07:35:58.422Z,1018.35
2018-02-23T07:36:58.538Z,1018.35
2018-02-23T07:37:58.429Z,1018.37
2018-02-23T07:38:58.469Z,1018.37
2018-02-23T07:39:58.529Z,1018.32
2018-02-23T07:40:58.538Z,1018.34
2018-02-23T07:42:58.619Z,1018.42
2018-02-23T07:46:57.149Z,1018.48
2018-02-23T07:47:45.159Z,1018.43
2018-02-23T07:49:49.548Z,1018.49
2018-02-23T07:50:49.753Z,1018.52
2018-02-23T07:51:49.327Z,1018.53
2018-02-23T07:52:49.735Z,1018.54
2018-02-23T07:53:50.272Z,1018.57
2018-02-23T07:54:49.410Z,1018.57
2018-02-23T07:55:49.462Z,1018.54
2018-02-23T07:56:49.484Z,1018.58
2018-02-23T07:57:49.506Z,1018.58
2018-02-23T07:58:49.842Z,1018.60
2018-02-23T07:59:50.024Z,1018.58
2018-02-23T08:00:50.047Z,1018.63
2018-02-23T08:01:49.660Z,1018.60
2018-02-23T08:02:50.098Z,1018.56
2018-02-23T08:03:49.737Z,1018.58
2018-02-23T08:04:50.159Z,1018.55
2018-02-23T08:05:49.813Z,1018.56
2018-02-23T08:06:50.131Z,1018.53
2018-02-23T08:07:49.972Z,1018.55
2018-02-23T08:08:49.932Z,1018.57
2018-02-23T08:09:50.081Z,1018.58
2018-02-23T08:11:50.036Z,1018.60
2018-02-23T08:12:50.086Z,1018.60
2018-02-23T08:13:51.050Z,1018.54
2018-02-23T08:14:50.150Z,1018.57
2018-02-23T08:15:50.177Z,1018.56
2018-02-23T08:16:50.236Z,1018.60
2018-02-23T08:17:50.626Z,1018.58
2018-02-23T08:18:50.397Z,1018.61
2018-02-23T08:19:50.421Z,1018.51
2018-02-23T08:20:50.371Z,1018.54
2018-02-23T08:21:50.455Z,1018.55
2018-02-23T08:22:51.126Z,1018.60
2018-02-23T08:23:51.031Z,1018.56
2018-02-23T08:25:50.688Z,1018.58
2018-02-23T08:26:50.647Z,1018.57
2018-02-23T08:27:51.061Z,1018.55
2018-02-23T08:28:51.083Z,1018.60
2018-02-23T08:29:50.710Z,1018.62
2018-02-23T08:30:50.760Z,1018.63
2018-02-23T08:37:59.508Z,1018.68
